Time;durP1;ratioP1;P1;durP2;ratioP2;P2;SDS_P1;SDS_P2;PMS_P1;PMS_P2;Temp;Humidity;BMP_temperature;BMP_pressure;BME280_temperature;BME280_humidity;BME280_pressure;Samples;Min_cycle;Max_cycle;Signal;HPM_P1;HPM_P2
2021/11/23 00:00:06;;;;;;;8.93;5.37;;;;;;;5.11;94.01;100093.88;1771380;81;21823;-76
2021/11/23 00:03:10;;;;;;;7.53;4.67;;;;;;;5.05;93.89;100095.82;1771195;81;21292;-76
2021/11/23 00:06:17;;;;;;;8.30;5.22;;;;;;;5.04;94.13;100099.54;1771246;81;21292;-76
2021/11/23 00:09:22;;;;;;;12.93;5.47;;;;;;;5.03;94.18;100105.94;1769722;81;21736;-76
2021/11/23 00:12:27;;;;;;;10.20;5.42;;;;;;;5.03;93.96;100105.09;1771202;81;21300;-76
2021/11/23 00:15:36;;;;;;;7.20;4.95;;;;;;;5.02;93.59;100104.73;1771250;81;21229;-76
2021/11/23 00:18:41;;;;;;;8.15;5.55;;;;;;;4.97;93.11;100107.88;1770226;81;21331;-76
2021/11/23 00:21:48;;;;;;;8.18;5.70;;;;;;;4.95;92.86;100109.90;1770991;81;21190;-76
2021/11/23 00:24:56;;;;;;;8.68;5.87;;;;;;;4.95;92.65;100104.48;1771061;81;21300;-76
2021/11/23 00:28:02;;;;;;;16.70;5.70;;;;;;;4.98;92.15;100102.81;1771007;81;21319;-75
2021/11/23 00:31:07;;;;;;;7.35;5.40;;;;;;;5.00;91.38;100106.25;1734297;81;21236;-76
2021/11/23 00:34:14;;;;;;;8.13;5.78;;;;;;;5.00;90.81;100099.47;1770127;81;21859;-76
2021/11/23 00:37:19;;;;;;;6.92;4.95;;;;;;;5.01;90.31;100103.03;1771112;81;21303;-76
2021/11/23 00:40:26;;;;;;;10.00;5.65;;;;;;;5.00;90.11;100098.63;1771032;81;21292;-76
2021/11/23 00:43:32;;;;;;;7.67;5.62;;;;;;;5.00;89.77;100099.47;1771151;81;21303;-76
2021/11/23 00:46:38;;;;;;;7.87;5.37;;;;;;;4.96;89.37;100101.27;1769768;81;21252;-75
2021/11/23 00:49:44;;;;;;;10.38;5.50;;;;;;;4.93;89.30;100092.05;1769902;81;21304;-76
2021/11/23 00:52:50;;;;;;;11.93;6.10;;;;;;;4.96;89.15;100108.04;1771065;81;21174;-76
2021/11/23 00:55:56;;;;;;;11.33;5.65;;;;;;;4.96;88.92;100099.91;1770534;81;21273;-76
2021/11/23 00:59:03;;;;;;;9.63;5.30;;;;;;;4.94;88.45;100098.70;1770799;81;21304;-76
2021/11/23 01:02:09;;;;;;;12.33;5.92;;;;;;;4.90;88.32;100101.86;1770677;81;21787;-77
2021/11/23 01:05:16;;;;;;;8.68;5.55;;;;;;;4.84;88.08;100092.42;1771036;81;21307;-76
2021/11/23 01:08:21;;;;;;;7.67;5.42;;;;;;;4.82;88.30;100095.29;1771724;81;21410;-76
2021/11/23 01:11:27;;;;;;;10.08;6.42;;;;;;;4.85;88.44;100102.29;1772105;81;21300;-76
2021/11/23 01:14:34;;;;;;;8.35;6.03;;;;;;;4.86;88.56;100100.78;1771219;81;21177;-76
2021/11/23 01:17:41;;;;;;;9.58;5.80;;;;;;;4.92;88.42;100103.91;1770222;81;21889;-76
2021/11/23 01:20:48;;;;;;;10.28;6.00;;;;;;;4.91;88.34;100098.98;1771115;81;21308;-76
2021/11/23 01:23:55;;;;;;;10.18;6.50;;;;;;;4.92;88.31;100105.26;1771012;81;21178;-76
2021/11/23 01:27:00;;;;;;;8.13;6.03;;;;;;;4.91;88.40;100106.27;1771193;81;21284;-75
2021/11/23 01:30:06;;;;;;;9.48;6.33;;;;;;;4.92;88.32;100105.26;1769731;81;21331;-76
2021/11/23 01:33:12;;;;;;;10.85;7.03;;;;;;;4.86;88.17;100100.78;1770468;81;21311;-76
2021/11/23 01:36:17;;;;;;;11.73;7.10;;;;;;;4.81;88.28;100103.07;1784524;80;21847;-75
2021/11/23 01:39:24;;;;;;;13.30;6.40;;;;;;;4.79;88.38;100094.20;1749826;82;21184;-76
2021/11/23 01:42:30;;;;;;;11.15;7.45;;;;;;;4.80;88.60;100101.87;1734913;82;21367;-75
2021/11/23 01:45:35;;;;;;;11.80;6.55;;;;;;;4.77;88.53;100097.58;1750270;82;21869;-76
2021/11/23 01:48:41;;;;;;;10.10;7.25;;;;;;;4.74;88.60;100093.79;1735303;82;21321;-76
2021/11/23 01:51:47;;;;;;;8.38;6.03;;;;;;;4.73;88.67;100104.78;1750054;82;21199;-76
2021/11/23 01:54:53;;;;;;;8.33;5.97;;;;;;;4.71;88.71;100096.81;1736323;82;21189;-76
2021/11/23 01:58:00;;;;;;;9.95;7.08;;;;;;;4.68;88.75;100104.36;1750099;82;21775;-76
2021/11/23 02:01:07;;;;;;;10.58;6.50;;;;;;;4.65;88.73;100096.52;1734927;82;21237;-76
2021/11/23 02:04:13;;;;;;;9.98;6.58;;;;;;;4.61;88.69;100094.58;1749104;82;21981;-76
2021/11/23 02:07:18;;;;;;;10.25;6.22;;;;;;;4.55;88.49;100101.94;1736236;82;21882;-75
2021/11/23 02:10:24;;;;;;;9.95;6.08;;;;;;;4.46;88.21;100111.77;1749221;82;21220;-76
2021/11/23 02:13:29;;;;;;;11.75;6.12;;;;;;;4.40;87.94;100107.42;1736156;82;21851;-76
2021/11/23 02:16:35;;;;;;;10.60;6.47;;;;;;;4.29;87.97;100105.72;1750002;82;21182;-76
2021/11/23 02:19:40;;;;;;;9.78;6.30;;;;;;;4.22;88.03;100108.61;1734823;82;21332;-76
2021/11/23 02:22:46;;;;;;;13.30;6.67;;;;;;;4.16;88.01;100105.98;1750097;82;21196;-77
2021/11/23 02:25:52;;;;;;;8.80;6.33;;;;;;;4.07;87.95;100113.08;1705788;82;21204;-76
2021/11/23 02:28:57;;;;;;;11.95;6.50;;;;;;;4.00;88.15;100111.05;1691891;84;21287;-76
2021/11/23 02:32:03;;;;;;;10.48;6.62;;;;;;;3.97;88.33;100110.00;1691806;84;21346;-76
2021/11/23 02:35:08;;;;;;;9.25;6.67;;;;;;;3.95;88.19;100106.56;1693177;84;21318;-76
2021/11/23 02:38:14;;;;;;;11.93;5.97;;;;;;;3.94;87.90;100106.20;1696635;84;21338;-76
2021/11/23 02:41:20;;;;;;;11.05;5.20;;;;;;;3.87;87.53;100101.01;1717223;83;21188;-76
2021/11/23 02:44:26;;;;;;;8.38;5.37;;;;;;;3.78;87.47;100098.63;1718174;83;21817;-76
2021/11/23 02:47:31;;;;;;;9.95;5.42;;;;;;;3.70;87.41;100097.95;1718262;83;21302;-77
2021/11/23 02:50:37;;;;;;;9.30;5.20;;;;;;;3.61;87.25;100102.83;1702756;84;21783;-76
2021/11/23 02:53:43;;;;;;;9.85;5.05;;;;;;;3.51;87.48;100101.95;1718270;83;21354;-76
2021/11/23 02:56:50;;;;;;;9.08;4.97;;;;;;;3.46;87.66;100101.50;1698788;84;21323;-76
2021/11/23 02:59:56;;;;;;;9.13;5.45;;;;;;;3.48;87.55;100102.20;1728693;83;21300;-76
2021/11/23 03:03:03;;;;;;;7.87;4.97;;;;;;;3.45;87.33;100102.00;1684005;85;21313;-75
2021/11/23 03:06:12;;;;;;;14.63;5.22;;;;;;;3.43;87.19;100101.76;1716990;83;21315;-75
2021/11/23 03:09:16;;;;;;;10.05;5.95;;;;;;;3.40;87.02;100099.34;1715790;83;21728;-76
2021/11/23 03:12:27;;;;;;;14.78;4.70;;;;;;;3.35;86.74;100101.60;1715613;83;21768;-77
2021/11/23 03:15:36;;;;;;;8.80;5.22;;;;;;;3.32;86.70;100106.27;1715628;83;21201;-77
2021/11/23 03:18:41;;;;;;;7.87;4.85;;;;;;;3.25;86.67;100103.77;1717247;83;21959;-76
2021/11/23 03:21:47;;;;;;;8.15;4.65;;;;;;;3.20;86.66;100110.53;1715502;83;21339;-76
2021/11/23 03:24:52;;;;;;;8.33;4.50;;;;;;;3.15;86.51;100108.23;1715455;83;21902;-76
2021/11/23 03:27:57;;;;;;;7.25;4.20;;;;;;;3.14;86.66;100120.54;1716885;83;21317;-76
2021/11/23 03:31:02;;;;;;;6.75;4.30;;;;;;;3.16;86.60;100128.04;1716643;83;21334;-76
2021/11/23 03:34:08;;;;;;;7.60;4.47;;;;;;;3.18;86.30;100144.47;1716968;83;21311;-76
2021/11/23 03:37:20;;;;;;;6.50;4.42;;;;;;;3.17;85.83;100151.37;1700441;83;21334;-76
2021/11/23 03:40:29;;;;;;;6.58;4.12;;;;;;;3.16;85.46;100151.86;1704372;84;21313;-76
2021/11/23 03:43:34;;;;;;;6.90;3.87;;;;;;;3.19;85.25;100154.78;1706970;84;21311;-75
2021/11/23 03:46:41;;;;;;;6.15;3.42;;;;;;;3.21;85.05;100163.13;1704389;84;21324;-76
2021/11/23 03:49:47;;;;;;;7.83;3.50;;;;;;;3.22;84.59;100172.09;1706325;84;21339;-75
2021/11/23 03:52:54;;;;;;;5.58;3.35;;;;;;;3.18;83.97;100168.80;1703048;84;21343;-75
2021/11/23 03:55:59;;;;;;;5.58;3.25;;;;;;;3.16;83.33;100169.44;1705237;84;21323;-76
2021/11/23 03:59:06;;;;;;;5.10;3.60;;;;;;;3.15;83.14;100163.64;1704116;84;21332;-75
2021/11/23 04:02:12;;;;;;;9.03;3.60;;;;;;;3.10;82.98;100165.89;1705664;84;21303;-75
2021/11/23 04:05:17;;;;;;;4.05;2.80;;;;;;;3.07;82.79;100163.47;1703841;84;21367;-76
2021/11/23 04:08:22;;;;;;;5.40;2.72;;;;;;;3.06;82.89;100172.07;1706633;84;21850;-76
2021/11/23 04:11:27;;;;;;;6.58;3.10;;;;;;;3.09;82.75;100173.64;1703795;84;21343;-76
2021/11/23 04:14:34;;;;;;;7.22;2.98;;;;;;;3.07;82.33;100172.43;1687585;84;21302;-76
2021/11/23 04:17:40;;;;;;;5.85;2.80;;;;;;;3.00;81.97;100168.52;1730110;83;21153;-76
2021/11/23 04:20:46;;;;;;;4.15;2.87;;;;;;;2.95;81.90;100161.30;1700732;83;21886;-76
2021/11/23 04:23:52;;;;;;;7.40;3.15;;;;;;;2.95;82.00;100161.80;1718916;83;21236;-75
2021/11/23 04:26:59;;;;;;;5.03;2.95;;;;;;;2.97;81.80;100172.00;1729963;83;21184;-76
2021/11/23 04:30:05;;;;;;;7.70;3.30;;;;;;;3.01;81.54;100173.43;1720069;83;21333;-77
2021/11/23 04:33:13;;;;;;;9.85;3.83;;;;;;;3.00;81.15;100169.88;1734487;82;21359;-77
2021/11/23 04:36:18;;;;;;;8.48;4.33;;;;;;;2.99;80.99;100179.47;1711057;84;21646;-76
2021/11/23 04:39:23;;;;;;;13.30;4.97;;;;;;;3.00;81.13;100186.58;1739781;82;21347;-76
2021/11/23 04:42:29;;;;;;;11.20;5.37;;;;;;;3.02;81.14;100181.92;1684907;84;21198;-76
2021/11/23 04:45:35;;;;;;;9.43;5.78;;;;;;;3.05;81.15;100191.95;1712626;84;21830;-76
2021/11/23 04:48:40;;;;;;;11.55;6.50;;;;;;;3.07;81.28;100197.25;1723482;83;21300;-76
2021/11/23 04:51:47;;;;;;;12.25;7.92;;;;;;;3.08;81.46;100192.20;1701807;83;21249;-76
2021/11/23 04:54:53;;;;;;;14.58;8.85;;;;;;;3.06;81.72;100197.75;1712232;83;21226;-77
2021/11/23 04:57:59;;;;;;;11.40;7.40;;;;;;;3.05;81.95;100197.86;1724221;83;21305;-76
2021/11/23 05:01:05;;;;;;;11.45;8.08;;;;;;;3.06;81.99;100195.05;1724107;83;21229;-77
2021/11/23 05:04:12;;;;;;;13.40;8.08;;;;;;;3.01;81.67;100192.34;1739852;82;21272;-76
2021/11/23 05:07:18;;;;;;;12.63;8.08;;;;;;;2.97;81.45;100200.38;1738922;82;21220;-77
2021/11/23 05:10:24;;;;;;;13.75;9.13;;;;;;;2.94;81.37;100208.73;1721708;82;21236;-77
2021/11/23 05:13:30;;;;;;;15.00;8.90;;;;;;;2.94;81.33;100210.08;1729061;82;21297;-77
2021/11/23 05:16:36;;;;;;;12.88;8.15;;;;;;;2.95;81.27;100215.84;1727048;82;21320;-77
2021/11/23 05:19:42;;;;;;;19.05;9.45;;;;;;;2.95;81.06;100225.30;1705046;84;22550;-76
2021/11/23 05:22:48;;;;;;;14.38;8.88;;;;;;;2.96;80.96;100231.91;1720630;82;21185;-77
2021/11/23 05:25:56;;;;;;;13.10;8.05;;;;;;;2.99;80.86;100230.31;1734191;82;21217;-77
2021/11/23 05:29:02;;;;;;;28.87;9.68;;;;;;;2.99;80.82;100244.33;1711118;82;21190;-76
2021/11/23 05:32:07;;;;;;;15.80;8.70;;;;;;;3.00;80.69;100251.44;1704749;84;21348;-77
2021/11/23 05:35:13;;;;;;;16.80;8.35;;;;;;;3.01;80.58;100251.80;1703894;84;22121;-77
2021/11/23 05:38:18;;;;;;;15.70;8.58;;;;;;;3.00;80.53;100239.28;1712406;82;21327;-77
2021/11/23 05:41:23;;;;;;;19.15;10.32;;;;;;;3.04;80.61;100255.59;1734750;82;21256;-76
2021/11/23 05:44:28;;;;;;;19.95;10.48;;;;;;;3.08;80.63;100263.81;1734051;82;22299;-77
2021/11/23 05:47:34;;;;;;;20.23;10.40;;;;;;;3.13;80.40;100263.43;1735341;82;21375;-77
2021/11/23 05:50:39;;;;;;;19.12;11.60;;;;;;;3.15;80.50;100264.99;1732862;82;21300;-77
2021/11/23 05:53:46;;;;;;;25.20;15.48;;;;;;;3.20;80.50;100267.31;1733596;82;21319;-77
2021/11/23 05:56:52;;;;;;;29.65;16.40;;;;;;;3.22;80.42;100264.86;1708807;82;21226;-76
2021/11/23 06:00:01;;;;;;;25.37;15.13;;;;;;;3.24;80.35;100264.22;1734834;81;21574;-77
2021/11/23 06:03:06;;;;;;;25.95;13.53;;;;;;;3.26;79.95;100260.05;1738603;80;21196;-77
2021/11/23 06:06:13;;;;;;;20.88;12.85;;;;;;;3.21;79.45;100259.59;1737756;80;21244;-75
2021/11/23 06:09:18;;;;;;;24.20;13.15;;;;;;;3.17;79.54;100269.80;1733416;81;21201;-77
2021/11/23 06:12:29;;;;;;;27.13;13.70;;;;;;;3.21;79.54;100267.70;1733849;82;21252;-76
2021/11/23 06:15:31;;;;;;;22.32;12.37;;;;;;;3.25;79.39;100270.02;1738213;82;21960;-77
2021/11/23 06:18:36;;;;;;;18.25;10.78;;;;;;;3.32;79.40;100267.13;1736008;82;21207;-77
2021/11/23 06:21:42;;;;;;;19.70;10.43;;;;;;;3.36;78.92;100273.64;1738265;81;21318;-77
2021/11/23 06:24:47;;;;;;;16.93;9.63;;;;;;;3.41;78.68;100272.75;1733431;82;21411;-76
2021/11/23 06:27:54;;;;;;;14.60;9.43;;;;;;;3.44;78.14;100269.80;1708656;83;21592;-76
2021/11/23 06:31:00;;;;;;;24.23;9.83;;;;;;;3.45;77.26;100273.71;1706912;83;21323;-78
2021/11/23 06:34:08;;;;;;;20.50;10.20;;;;;;;3.48;77.23;100273.45;1712156;83;21550;-78
2021/11/23 06:37:17;;;;;;;20.80;10.15;;;;;;;3.51;76.52;100266.41;1732700;80;21214;-78
2021/11/23 06:40:21;;;;;;;24.92;10.23;;;;;;;3.53;76.29;100270.36;1711359;82;21961;-76
2021/11/23 06:43:41;;;;;;;16.97;9.18;;;;;;;3.54;76.04;100271.56;1730026;82;21241;-78
2021/11/23 06:46:47;;;;;;;18.32;10.35;;;;;;;3.57;75.29;100269.92;1709654;81;21257;-78
2021/11/23 06:49:54;;;;;;;20.65;11.18;;;;;;;3.58;74.97;100278.93;1717871;81;21790;-77
2021/11/23 06:53:01;;;;;;;23.38;10.88;;;;;;;3.65;74.96;100273.34;1720860;81;21185;-77
2021/11/23 06:56:07;;;;;;;20.57;9.50;;;;;;;3.75;74.85;100276.95;1701087;82;21262;-77
2021/11/23 06:59:14;;;;;;;19.90;8.30;;;;;;;3.82;74.74;100279.50;1704570;82;21213;-78
2021/11/23 07:02:19;;;;;;;18.48;7.83;;;;;;;3.88;73.97;100278.09;1714893;81;22395;-78
2021/11/23 07:05:24;;;;;;;20.45;9.53;;;;;;;3.93;73.76;100279.05;1714666;81;21244;-79
2021/11/23 07:08:36;;;;;;;21.23;9.73;;;;;;;3.96;73.08;100278.30;1720684;81;21300;-79
2021/11/23 07:11:41;;;;;;;18.32;8.40;;;;;;;3.99;73.20;100287.98;1694140;81;21215;-77
2021/11/23 07:14:46;;;;;;;19.87;9.65;;;;;;;4.02;72.77;100287.72;1718975;81;21370;-78
2021/11/23 07:17:56;;;;;;;22.52;11.22;;;;;;;4.09;72.23;100283.46;1716262;81;22254;-78
2021/11/23 07:21:02;;;;;;;24.92;10.63;;;;;;;4.15;72.31;100291.06;1717192;81;21315;-79
2021/11/23 07:24:10;;;;;;;17.70;8.30;;;;;;;4.22;72.04;100297.63;1713992;81;21315;-79
2021/11/23 07:27:15;;;;;;;19.25;9.58;;;;;;;4.27;71.15;100296.73;1694983;81;21813;-79
2021/11/23 07:30:22;;;;;;;23.35;9.43;;;;;;;4.30;70.93;100305.09;1720720;81;21173;-79
2021/11/23 07:33:30;;;;;;;17.55;9.13;;;;;;;4.32;70.45;100303.94;1722757;81;21217;-79
2021/11/23 07:36:38;;;;;;;16.15;8.78;;;;;;;4.36;69.79;100301.83;1719766;81;23121;-79
2021/11/23 07:39:43;;;;;;;20.82;9.30;;;;;;;4.36;69.26;100311.30;1709523;81;21191;-82
2021/11/23 07:42:51;;;;;;;12.47;6.97;;;;;;;4.35;69.58;100311.80;1723422;81;21595;-78
2021/11/23 07:45:58;;;;;;;13.80;6.10;;;;;;;4.36;69.08;100313.52;1719109;82;21850;-77
2021/11/23 07:49:04;;;;;;;15.60;6.22;;;;;;;4.39;69.52;100319.16;1728201;81;21216;-82
2021/11/23 07:52:15;;;;;;;14.45;7.53;;;;;;;4.41;68.80;100316.31;1719595;82;21351;-77
2021/11/23 07:55:20;;;;;;;13.48;7.30;;;;;;;4.46;69.38;100319.47;1709258;81;21549;-77
2021/11/23 07:58:26;;;;;;;22.60;10.38;;;;;;;4.53;69.55;100323.35;1692269;81;21198;-78
2021/11/23 08:01:31;;;;;;;26.33;11.15;;;;;;;4.60;69.56;100313.66;1717694;81;21515;-79
2021/11/23 08:04:39;;;;;;;22.73;10.10;;;;;;;4.65;69.78;100314.11;1718029;81;21220;-78
2021/11/23 08:07:46;;;;;;;17.52;9.08;;;;;;;4.72;69.72;100321.20;1714135;81;21335;-77
2021/11/23 08:10:51;;;;;;;13.08;7.28;;;;;;;4.74;69.29;100327.33;1714241;81;21203;-77
2021/11/23 08:14:01;;;;;;;17.25;8.48;;;;;;;4.72;68.92;100319.84;1688610;82;21255;-79
2021/11/23 08:17:09;;;;;;;13.48;6.92;;;;;;;4.69;68.61;100319.61;1714054;81;21331;-77
2021/11/23 08:20:17;;;;;;;16.82;7.22;;;;;;;4.72;68.62;100328.83;1717409;81;21311;-76
2021/11/23 08:23:28;;;;;;;14.30;7.03;;;;;;;4.74;68.32;100326.83;1722907;81;21377;-78
2021/11/23 08:26:38;;;;;;;12.80;6.08;;;;;;;4.74;67.84;100327.33;1715642;81;21283;-78
2021/11/23 08:29:47;;;;;;;9.35;5.45;;;;;;;4.73;67.92;100321.05;1700793;81;21304;-78
2021/11/23 08:32:55;;;;;;;11.10;5.80;;;;;;;4.72;67.38;100319.34;1658911;82;21242;-76
2021/11/23 08:40:19;;;;;;;10.60;5.40;;;;;;;4.66;67.77;100321.27;1732727;81;21173;-78
2021/11/23 08:43:25;;;;;;;8.18;4.28;;;;;;;4.67;67.35;100320.77;1693267;82;21196;-77
2021/11/23 08:46:31;;;;;;;10.55;4.20;;;;;;;4.69;67.48;100324.17;1760850;79;22492;-77
2021/11/23 08:49:38;;;;;;;6.60;4.12;;;;;;;4.68;67.13;100313.84;1762550;79;21647;-78
2021/11/23 08:52:48;;;;;;;5.92;3.90;;;;;;;4.65;66.73;100311.90;1754324;79;21282;-78
2021/11/23 08:56:00;;;;;;;7.58;4.35;;;;;;;4.60;67.45;100312.31;1764189;79;21983;-78
2021/11/23 08:59:14;;;;;;;7.50;4.00;;;;;;;4.63;67.83;100313.91;1759857;79;21615;-79
2021/11/23 09:02:19;;;;;;;6.60;3.60;;;;;;;4.72;66.27;100313.08;1760484;79;21294;-77
2021/11/23 09:05:27;;;;;;;7.55;3.77;;;;;;;4.77;66.23;100313.52;1765425;79;21517;-79
2021/11/23 09:08:46;;;;;;;7.55;4.15;;;;;;;4.83;66.13;100311.09;1760139;79;21172;-80
2021/11/23 09:11:46;;;;;;;9.70;3.67;;;;;;;4.84;66.00;100310.59;1756333;79;21173;-79
2021/11/23 09:14:51;;;;;;;6.80;3.50;;;;;;;4.80;65.71;100319.52;1697847;82;21792;-79
2021/11/23 09:18:02;;;;;;;6.85;3.87;;;;;;;4.80;65.06;100311.89;1678565;83;21223;-78
2021/11/23 09:21:10;;;;;;;7.60;3.70;;;;;;;4.84;64.62;100318.22;1763588;79;21244;-79
2021/11/23 09:24:22;;;;;;;6.08;4.15;;;;;;;4.93;64.43;100327.88;1746995;81;21134;-78
2021/11/23 09:27:33;;;;;;;9.83;4.80;;;;;;;4.97;64.07;100333.38;1741518;79;21138;-79
2021/11/23 09:30:40;;;;;;;7.30;4.10;;;;;;;4.97;63.64;100323.89;1761177;79;21299;-79
2021/11/23 09:33:48;;;;;;;10.05;4.20;;;;;;;4.93;63.73;100316.53;1679406;82;21231;-79
2021/11/23 09:36:55;;;;;;;5.30;3.60;;;;;;;4.94;63.78;100321.45;1762989;79;21286;-77
2021/11/23 09:40:04;;;;;;;6.92;3.65;;;;;;;4.97;63.44;100317.11;1759235;79;21213;-78
2021/11/23 09:43:15;;;;;;;4.85;3.40;;;;;;;4.94;62.05;100320.98;1755396;79;21452;-79
2021/11/23 09:46:43;;;;;;;8.50;4.40;;;;;;;4.90;62.61;100324.95;1756859;79;21158;-78
2021/11/23 09:49:49;;;;;;;8.30;3.50;;;;;;;4.88;62.72;100330.50;1770585;79;21281;-78
2021/11/23 09:52:56;;;;;;;5.72;3.83;;;;;;;4.88;62.61;100330.50;1758315;79;21763;-78
2021/11/23 09:56:02;;;;;;;5.03;3.58;;;;;;;4.92;62.39;100327.52;1760966;79;21169;-77
2021/11/23 09:59:09;;;;;;;4.55;2.92;;;;;;;4.98;62.70;100323.73;1761515;79;21894;-77
2021/11/23 10:02:14;;;;;;;4.92;3.08;;;;;;;5.05;62.04;100328.97;1756589;79;21287;-77
2021/11/23 10:05:22;;;;;;;7.87;2.47;;;;;;;5.10;61.06;100323.98;1697806;81;21246;-78
2021/11/23 10:08:28;;;;;;;4.37;2.50;;;;;;;5.10;58.45;100326.70;1761493;79;21244;-78
2021/11/23 10:11:38;;;;;;;4.67;2.70;;;;;;;5.11;58.38;100328.91;1761708;79;22241;-79
2021/11/23 10:14:47;;;;;;;5.25;1.98;;;;;;;5.10;57.48;100317.20;1730168;79;21209;-78
2021/11/23 10:18:01;;;;;;;4.85;2.72;;;;;;;5.13;56.63;100329.13;1729134;79;21162;-76
2021/11/23 10:28:53;;;;;;;4.75;3.00;;;;;;;5.18;54.99;100317.02;1758279;79;21145;-77
2021/11/23 10:31:59;;;;;;;5.62;3.20;;;;;;;5.15;55.52;100320.85;1765386;79;21199;-77
2021/11/23 10:35:04;;;;;;;6.08;3.15;;;;;;;5.15;56.20;100324.92;1759961;79;21311;-78
2021/11/23 10:38:13;;;;;;;4.92;3.47;;;;;;;5.18;56.78;100321.94;1754130;79;21179;-78
2021/11/23 10:41:22;;;;;;;7.55;4.35;;;;;;;5.19;56.28;100331.77;1761511;79;21546;-78
2021/11/23 10:44:29;;;;;;;9.55;4.42;;;;;;;5.16;56.70;100325.27;1756643;79;21616;-79
2021/11/23 10:47:36;;;;;;;7.17;4.42;;;;;;;5.14;56.05;100323.20;1757625;79;21331;-78
2021/11/23 10:50:42;;;;;;;7.28;4.55;;;;;;;5.12;55.41;100313.84;1744517;79;21772;-78
2021/11/23 10:53:48;;;;;;;7.12;3.98;;;;;;;5.07;55.31;100313.91;1744255;80;21208;-78
2021/11/23 10:57:14;;;;;;;4.72;3.25;;;;;;;5.02;55.65;100308.91;1762277;79;21622;-80
2021/11/23 11:00:22;;;;;;;5.10;3.85;;;;;;;5.00;55.41;100322.27;1699739;82;21866;-78
2021/11/23 11:03:31;;;;;;;6.05;4.03;;;;;;;4.93;55.93;100315.17;1720405;81;21261;-79
2021/11/23 11:06:38;;;;;;;6.78;4.15;;;;;;;4.89;57.03;100320.51;1694031;82;21335;-78
2021/11/23 11:09:51;;;;;;;8.05;4.85;;;;;;;4.90;58.93;100326.81;1754718;80;21185;-78
2021/11/23 11:13:06;;;;;;;6.47;4.00;;;;;;;4.86;59.60;100314.89;1677027;82;21171;-77
2021/11/23 11:16:32;;;;;;;9.63;3.72;;;;;;;4.82;59.17;100328.35;1640110;83;21256;-78
2021/11/23 11:19:53;;;;;;;5.37;3.50;;;;;;;4.78;57.08;100323.34;1744992;79;21779;-77
2021/11/23 11:23:05;;;;;;;5.17;3.40;;;;;;;4.74;57.03;100321.41;1766009;79;21194;-79
2021/11/23 11:29:28;;;;;;;4.03;3.27;;;;;;;4.77;58.46;100318.43;1756186;79;21202;-77
2021/11/23 11:32:44;;;;;;;5.95;3.27;;;;;;;4.87;58.68;100319.80;1756993;79;21363;-78
2021/11/23 11:35:54;;;;;;;5.83;3.80;;;;;;;4.93;58.21;100319.23;1755753;79;21232;-77
2021/11/23 11:39:07;;;;;;;5.92;3.10;;;;;;;4.90;58.60;100317.33;1760916;79;21432;-79
2021/11/23 11:42:32;;;;;;;5.47;3.10;;;;;;;4.82;56.87;100328.35;1774542;79;21354;-78
2021/11/23 11:45:57;;;;;;;4.17;2.70;;;;;;;4.75;57.64;100335.81;1766202;79;21713;-79
2021/11/23 11:49:04;;;;;;;5.62;3.35;;;;;;;4.72;58.32;100332.89;1756630;79;22482;-76
2021/11/23 11:52:13;;;;;;;5.92;3.80;;;;;;;4.70;58.01;100338.93;1756642;79;21463;-77
2021/11/23 11:55:23;;;;;;;7.15;3.70;;;;;;;4.68;58.41;100335.52;1711498;82;21851;-78
2021/11/23 11:58:59;;;;;;;6.67;3.87;;;;;;;4.59;58.30;100333.13;1697470;82;21247;-79
2021/11/23 12:02:15;;;;;;;8.13;3.95;;;;;;;4.45;58.75;100337.57;1705343;81;21157;-78
2021/11/23 12:05:36;;;;;;;10.18;4.60;;;;;;;4.31;59.50;100340.14;1757953;79;22641;-78
2021/11/23 12:08:55;;;;;;;9.20;4.30;;;;;;;4.22;59.88;100336.03;1745316;80;21712;-78
2021/11/23 12:15:52;;;;;;;10.58;5.95;;;;;;;4.07;60.49;100336.39;1760691;79;21228;-77
2021/11/23 12:19:26;;;;;;;10.75;5.05;;;;;;;4.03;60.66;100344.91;1714263;79;21265;-78
2021/11/23 12:22:31;;;;;;;11.03;5.67;;;;;;;3.99;60.82;100342.95;1755932;79;21307;-77
2021/11/23 12:25:39;;;;;;;10.58;5.85;;;;;;;3.97;60.64;100354.43;1757244;79;21172;-76
2021/11/23 12:28:44;;;;;;;13.00;5.08;;;;;;;3.93;61.12;100357.53;1744516;79;21213;-78
2021/11/23 12:31:56;;;;;;;10.95;6.33;;;;;;;3.90;61.96;100358.64;1751729;79;21319;-78
2021/11/23 12:35:03;;;;;;;13.43;6.25;;;;;;;3.88;62.49;100355.72;1747496;81;21930;-79
2021/11/23 12:38:11;;;;;;;15.08;7.30;;;;;;;3.82;62.83;100356.61;1734940;81;21577;-77
2021/11/23 12:41:32;;;;;;;23.32;9.43;;;;;;;3.81;63.11;100350.84;1757124;80;21313;-78
2021/11/23 12:44:44;;;;;;;26.60;9.80;;;;;;;3.77;63.47;100354.80;1756142;80;21323;-78
2021/11/23 12:47:55;;;;;;;64.55;27.07;;;;;;;3.73;63.42;100356.05;1749407;79;21318;-77
2021/11/23 12:51:05;;;;;;;38.23;15.78;;;;;;;3.66;63.91;100357.55;1738496;81;21370;-76
2021/11/23 12:54:13;;;;;;;19.70;10.15;;;;;;;3.59;64.37;100373.45;1750024;81;21664;-77
2021/11/23 12:57:27;;;;;;;25.27;10.45;;;;;;;3.55;64.77;100369.79;1744054;81;21228;-77
2021/11/23 13:00:34;;;;;;;17.82;9.60;;;;;;;3.52;65.05;100366.83;1753459;79;21647;-78
2021/11/23 13:03:39;;;;;;;22.22;9.98;;;;;;;3.49;65.35;100362.20;1748323;80;21203;-78
2021/11/23 13:06:44;;;;;;;21.05;8.23;;;;;;;3.48;65.44;100366.76;1718688;81;21879;-78
2021/11/23 13:10:11;;;;;;;20.12;9.25;;;;;;;3.47;65.59;100365.52;1743958;80;21176;-79
2021/11/23 13:13:21;;;;;;;37.85;17.10;;;;;;;3.43;65.54;100356.80;1754890;81;21251;-79
2021/11/23 13:16:30;;;;;;;19.27;9.68;;;;;;;3.41;65.68;100365.54;1750057;81;21195;-79
2021/11/23 13:19:47;;;;;;;17.98;8.70;;;;;;;3.40;65.92;100367.03;1745731;81;21207;-78
2021/11/23 13:22:58;;;;;;;12.28;7.25;;;;;;;3.37;66.01;100369.48;1751524;80;21184;-79
2021/11/23 13:26:15;;;;;;;16.82;9.03;;;;;;;3.35;66.15;100366.06;1754906;79;22448;-79
2021/11/23 13:29:22;;;;;;;24.70;9.03;;;;;;;3.29;66.49;100371.50;1759260;81;21301;-77
2021/11/23 13:32:29;;;;;;;12.75;8.05;;;;;;;3.26;66.82;100379.86;1755553;79;21322;-78
2021/11/23 13:35:38;;;;;;;16.02;8.53;;;;;;;3.23;67.00;100378.75;1751631;80;21291;-78
2021/11/23 13:38:51;;;;;;;15.60;7.92;;;;;;;3.25;66.95;100388.95;1749850;81;21346;-76
2021/11/23 13:41:59;;;;;;;22.75;8.83;;;;;;;3.23;66.89;100385.50;1755858;80;21715;-78
2021/11/23 13:45:08;;;;;;;18.23;9.03;;;;;;;3.18;66.63;100378.27;1750421;81;21223;-77
2021/11/23 13:48:21;;;;;;;16.20;8.55;;;;;;;3.12;67.05;100389.61;1716049;82;21405;-77
2021/11/23 13:51:27;;;;;;;15.32;6.95;;;;;;;3.05;66.73;100391.08;1762506;80;21299;-77
2021/11/23 13:54:32;;;;;;;10.88;6.35;;;;;;;2.94;66.31;100393.81;1754391;81;22811;-77
2021/11/23 13:57:40;;;;;;;10.55;5.83;;;;;;;2.80;66.02;100394.44;1756415;80;21327;-77
2021/11/23 14:00:45;;;;;;;11.78;5.17;;;;;;;2.71;66.45;100395.19;1762135;80;21233;-78
2021/11/23 14:04:12;;;;;;;9.08;5.45;;;;;;;2.61;66.49;100394.70;1761210;81;21201;-77
2021/11/23 14:07:24;;;;;;;9.85;5.37;;;;;;;2.51;66.83;100394.59;1764785;80;21331;-77
2021/11/23 14:10:38;;;;;;;10.65;6.33;;;;;;;2.41;67.17;100388.20;1717388;83;21315;-77
2021/11/23 14:13:44;;;;;;;10.50;6.83;;;;;;;2.33;67.67;100392.00;1759705;79;21673;-78
2021/11/23 14:17:05;;;;;;;14.60;7.80;;;;;;;2.25;68.07;100396.16;1681181;82;21231;-78
2021/11/23 14:20:17;;;;;;;13.13;7.40;;;;;;;2.17;68.49;100393.22;1717081;83;21357;-79
2021/11/23 14:23:38;;;;;;;13.20;6.90;;;;;;;2.06;69.01;100391.83;1752175;81;21316;-78
2021/11/23 14:26:48;;;;;;;10.00;6.00;;;;;;;1.97;69.50;100392.55;1754252;81;21323;-78
2021/11/23 14:29:54;;;;;;;13.93;5.95;;;;;;;1.90;70.09;100396.72;1758347;81;21320;-78
2021/11/23 14:32:59;;;;;;;12.28;6.40;;;;;;;1.77;70.40;100396.80;1758752;81;21280;-76
2021/11/23 14:36:02;;;;;;;23.02;10.45;;;;;;;1.66;70.72;100402.16;1767661;81;21859;-79
2021/11/23 14:39:13;;;;;;;21.17;10.98;;;;;;;1.54;71.09;100406.64;1759413;80;21328;-78
2021/11/23 14:42:19;;;;;;;19.80;9.33;;;;;;;1.45;71.28;100405.98;1765252;81;21264;-77
2021/11/23 14:45:25;;;;;;;14.75;8.38;;;;;;;1.37;71.32;100411.11;1763736;81;21217;-77
2021/11/23 14:48:31;;;;;;;16.55;8.38;;;;;;;1.32;71.43;100407.41;1739436;81;21332;-76
2021/11/23 14:51:38;;;;;;;21.05;9.63;;;;;;;1.28;71.59;100415.35;1738173;82;21185;-77
2021/11/23 14:54:43;;;;;;;25.92;10.60;;;;;;;1.21;71.70;100412.23;1737066;82;21303;-77